Volk Field
KVOK : now visible

Airfield :











YOU CAN JOIN US ON...

 
LOGIN :

Register | Disclaimer

   EN    FR    IT 

 









Legend :    VFR   Marginal VFR   IFR   Intensive IFR   Very Intensive IFR
Visi :
Ceiling :
>= 8 km
>= 3000ft
5 to 8 km
1000 to 3000 ft
1500m to 5 km
500 to 1000 ft
800 to 1500m
200 to 500 ft
< 800m
< 200 ft
Symbols :   Thunderstorms  Fog  Heavy snow  Heavy precipitations  Wind > 20 kt






- Airport Elevation : 912 ft


KVOK - Volk Field

CURRENT METAR :
  • 141256Z AUTO 29011KT 6SM BR OVC009 M07/M07 A2978 RMK AO2 SLP102 T10701071 $

EXPIRED METARs :
  • 141156Z AUTO 29009KT 6SM BR OVC009 M06/M06 A2976 RMK AO2 DZE13SNB13E27SNB38E51 SLP095 P0000 60000 T10641065 11031 21064 55003 $
  • 141138Z AUTO 30009KT 6SM -SN BR OVC009 M06/M06 A2976 RMK AO2 DZE13SNB13E27SNB38 SLP094 $
  • 141127Z AUTO 31006KT 6SM BR OVC009 M06/M06 A2976 RMK AO2 DZE13SNB13E27 SLP094 $
  • 141111Z AUTO 30010KT 7SM -DZ OVC009 M06/M06 A2975 RMK AO2 SLP091 $
  • 141056Z AUTO 29009KT 7SM -DZ OVC008 M06/M06 A2975 RMK AO2 SLP091 P0000 T10581059 $
  • 141026Z AUTO 29007KT 7SM -DZ OVC008 M06/M06 A2975 RMK AO2 SLP091 $

Expired Forecast.



MET'MAP, your aeronautical weather chart ! - Copyright ORBIFLY December 2007 - Disclaimer

ORBIFLY MET'MAP TEAM :

Programming & Development : Alexandra Zaïnal
Concept & original design : Baudouin d'Aumeries
Assistance for programming : Marc-Olivier Méhu
Technical & hardware support : Manuel Goepfert

Contact : metmap@orbifly.com




SOURCES & CREDITS :

   NOAA       Earth
Advisory